sensor_id;sensor_type;location;lat;lon;timestamp;P1;durP1;ratioP1;P2;durP2;ratioP2
43088;SDS011;28709;52.030;5.652;2022-08-19T00:02:03;2.38;;;2.13;;
43088;SDS011;28709;52.030;5.652;2022-08-19T00:04:30;2.15;;;1.95;;
43088;SDS011;28709;52.030;5.652;2022-08-19T00:06:59;2.60;;;2.20;;
43088;SDS011;28709;52.030;5.652;2022-08-19T00:09:25;2.90;;;2.08;;
43088;SDS011;28709;52.030;5.652;2022-08-19T00:11:52;3.53;;;2.53;;
43088;SDS011;28709;52.030;5.652;2022-08-19T00:14:20;2.88;;;2.40;;
43088;SDS011;28709;52.030;5.652;2022-08-19T00:16:47;2.63;;;2.35;;
43088;SDS011;28709;52.030;5.652;2022-08-19T00:19:14;2.38;;;2.13;;
43088;SDS011;28709;52.030;5.652;2022-08-19T00:21:40;3.30;;;2.20;;
43088;SDS011;28709;52.030;5.652;2022-08-19T00:24:07;3.33;;;2.40;;
43088;SDS011;28709;52.030;5.652;2022-08-19T00:26:34;3.47;;;2.35;;
43088;SDS011;28709;52.030;5.652;2022-08-19T00:29:00;3.08;;;2.47;;
43088;SDS011;28709;52.030;5.652;2022-08-19T00:31:27;2.40;;;2.00;;
43088;SDS011;28709;52.030;5.652;2022-08-19T00:33:53;4.38;;;2.60;;
43088;SDS011;28709;52.030;5.652;2022-08-19T00:36:19;3.47;;;2.42;;
43088;SDS011;28709;52.030;5.652;2022-08-19T00:38:45;2.33;;;1.98;;
43088;SDS011;28709;52.030;5.652;2022-08-19T00:41:14;2.30;;;2.10;;
43088;SDS011;28709;52.030;5.652;2022-08-19T00:43:43;3.58;;;2.78;;
43088;SDS011;28709;52.030;5.652;2022-08-19T00:46:21;3.85;;;2.53;;
43088;SDS011;28709;52.030;5.652;2022-08-19T00:48:53;3.05;;;2.33;;
43088;SDS011;28709;52.030;5.652;2022-08-19T00:51:22;2.58;;;2.38;;
43088;SDS011;28709;52.030;5.652;2022-08-19T00:53:49;4.05;;;2.67;;
43088;SDS011;28709;52.030;5.652;2022-08-19T00:56:15;2.60;;;2.40;;
43088;SDS011;28709;52.030;5.652;2022-08-19T00:58:42;2.72;;;2.50;;
43088;SDS011;28709;52.030;5.652;2022-08-19T01:01:08;3.80;;;2.70;;
43088;SDS011;28709;52.030;5.652;2022-08-19T01:03:34;5.50;;;2.60;;
43088;SDS011;28709;52.030;5.652;2022-08-19T01:06:00;3.20;;;2.53;;
43088;SDS011;28709;52.030;5.652;2022-08-19T01:08:25;2.80;;;2.17;;
43088;SDS011;28709;52.030;5.652;2022-08-19T01:10:55;3.42;;;2.38;;
43088;SDS011;28709;52.030;5.652;2022-08-19T01:13:25;2.88;;;2.55;;
43088;SDS011;28709;52.030;5.652;2022-08-19T01:15:57;2.78;;;2.17;;
43088;SDS011;28709;52.030;5.652;2022-08-19T01:18:28;4.07;;;2.47;;
43088;SDS011;28709;52.030;5.652;2022-08-19T01:20:55;6.05;;;3.47;;
43088;SDS011;28709;52.030;5.652;2022-08-19T01:23:25;4.55;;;3.33;;
43088;SDS011;28709;52.030;5.652;2022-08-19T01:26:07;3.17;;;2.85;;
43088;SDS011;28709;52.030;5.652;2022-08-19T01:28:35;5.45;;;3.20;;
43088;SDS011;28709;52.030;5.652;2022-08-19T01:31:01;3.20;;;2.72;;
43088;SDS011;28709;52.030;5.652;2022-08-19T01:33:27;4.65;;;3.63;;
43088;SDS011;28709;52.030;5.652;2022-08-19T01:36:02;4.00;;;3.28;;
43088;SDS011;28709;52.030;5.652;2022-08-19T01:38:38;5.32;;;3.08;;
43088;SDS011;28709;52.030;5.652;2022-08-19T01:41:07;5.85;;;2.95;;
43088;SDS011;28709;52.030;5.652;2022-08-19T01:43:34;6.63;;;3.90;;
43088;SDS011;28709;52.030;5.652;2022-08-19T01:46:00;4.72;;;3.58;;
43088;SDS011;28709;52.030;5.652;2022-08-19T01:48:26;3.70;;;3.10;;
43088;SDS011;28709;52.030;5.652;2022-08-19T01:50:54;5.53;;;3.13;;
43088;SDS011;28709;52.030;5.652;2022-08-19T01:53:20;4.20;;;3.33;;
43088;SDS011;28709;52.030;5.652;2022-08-19T01:55:46;3.55;;;3.25;;
43088;SDS011;28709;52.030;5.652;2022-08-19T01:58:17;4.30;;;3.45;;
43088;SDS011;28709;52.030;5.652;2022-08-19T02:00:46;5.07;;;3.55;;
43088;SDS011;28709;52.030;5.652;2022-08-19T02:03:12;5.18;;;3.78;;
43088;SDS011;28709;52.030;5.652;2022-08-19T02:05:39;6.05;;;3.10;;
43088;SDS011;28709;52.030;5.652;2022-08-19T02:08:06;3.92;;;3.15;;
43088;SDS011;28709;52.030;5.652;2022-08-19T02:10:32;4.28;;;3.00;;
43088;SDS011;28709;52.030;5.652;2022-08-19T02:12:58;6.32;;;3.13;;
43088;SDS011;28709;52.030;5.652;2022-08-19T02:15:24;3.90;;;3.47;;
43088;SDS011;28709;52.030;5.652;2022-08-19T02:17:50;4.70;;;3.35;;
43088;SDS011;28709;52.030;5.652;2022-08-19T02:20:16;4.50;;;3.58;;
43088;SDS011;28709;52.030;5.652;2022-08-19T02:22:42;5.07;;;3.55;;
43088;SDS011;28709;52.030;5.652;2022-08-19T02:25:12;11.55;;;4.53;;
43088;SDS011;28709;52.030;5.652;2022-08-19T02:27:38;8.52;;;5.88;;
43088;SDS011;28709;52.030;5.652;2022-08-19T02:30:06;7.10;;;5.00;;
43088;SDS011;28709;52.030;5.652;2022-08-19T02:32:33;5.47;;;4.40;;
43088;SDS011;28709;52.030;5.652;2022-08-19T02:34:59;5.47;;;4.38;;
43088;SDS011;28709;52.030;5.652;2022-08-19T02:37:24;5.03;;;3.75;;
43088;SDS011;28709;52.030;5.652;2022-08-19T02:40:09;6.47;;;4.18;;
43088;SDS011;28709;52.030;5.652;2022-08-19T02:42:34;6.35;;;4.07;;
43088;SDS011;28709;52.030;5.652;2022-08-19T02:45:01;6.18;;;4.13;;
43088;SDS011;28709;52.030;5.652;2022-08-19T02:47:26;4.22;;;3.28;;
43088;SDS011;28709;52.030;5.652;2022-08-19T02:49:52;6.70;;;3.90;;
43088;SDS011;28709;52.030;5.652;2022-08-19T02:52:17;4.30;;;3.50;;
43088;SDS011;28709;52.030;5.652;2022-08-19T02:54:43;5.10;;;3.88;;
43088;SDS011;28709;52.030;5.652;2022-08-19T02:57:09;5.20;;;3.95;;
43088;SDS011;28709;52.030;5.652;2022-08-19T02:59:34;7.70;;;3.80;;
43088;SDS011;28709;52.030;5.652;2022-08-19T03:02:00;5.10;;;3.70;;
43088;SDS011;28709;52.030;5.652;2022-08-19T03:04:26;5.55;;;4.20;;
43088;SDS011;28709;52.030;5.652;2022-08-19T03:06:52;3.90;;;3.50;;
43088;SDS011;28709;52.030;5.652;2022-08-19T03:09:19;6.13;;;4.30;;
43088;SDS011;28709;52.030;5.652;2022-08-19T03:11:45;5.18;;;3.92;;
43088;SDS011;28709;52.030;5.652;2022-08-19T03:14:11;4.68;;;3.83;;
43088;SDS011;28709;52.030;5.652;2022-08-19T03:16:42;4.65;;;3.80;;
43088;SDS011;28709;52.030;5.652;2022-08-19T03:19:18;5.18;;;3.92;;
43088;SDS011;28709;52.030;5.652;2022-08-19T03:21:46;8.38;;;4.05;;
43088;SDS011;28709;52.030;5.652;2022-08-19T03:24:12;4.28;;;3.70;;
43088;SDS011;28709;52.030;5.652;2022-08-19T03:26:43;4.00;;;3.60;;
43088;SDS011;28709;52.030;5.652;2022-08-19T03:29:10;4.28;;;3.47;;
43088;SDS011;28709;52.030;5.652;2022-08-19T03:31:36;4.88;;;3.83;;
43088;SDS011;28709;52.030;5.652;2022-08-19T03:34:03;5.60;;;3.72;;
43088;SDS011;28709;52.030;5.652;2022-08-19T03:36:29;5.68;;;3.60;;
43088;SDS011;28709;52.030;5.652;2022-08-19T03:38:56;14.25;;;4.10;;
43088;SDS011;28709;52.030;5.652;2022-08-19T03:41:29;5.07;;;3.53;;
43088;SDS011;28709;52.030;5.652;2022-08-19T03:43:57;4.70;;;3.67;;
43088;SDS011;28709;52.030;5.652;2022-08-19T03:46:28;5.45;;;4.28;;
43088;SDS011;28709;52.030;5.652;2022-08-19T03:48:56;4.97;;;4.05;;
43088;SDS011;28709;52.030;5.652;2022-08-19T03:51:32;5.78;;;4.15;;
43088;SDS011;28709;52.030;5.652;2022-08-19T03:54:01;8.60;;;4.70;;
43088;SDS011;28709;52.030;5.652;2022-08-19T03:56:29;5.45;;;4.18;;
43088;SDS011;28709;52.030;5.652;2022-08-19T03:58:56;5.70;;;3.97;;
43088;SDS011;28709;52.030;5.652;2022-08-19T04:01:24;6.85;;;5.18;;
43088;SDS011;28709;52.030;5.652;2022-08-19T04:03:51;7.82;;;5.60;;
43088;SDS011;28709;52.030;5.652;2022-08-19T04:06:22;6.07;;;4.68;;
43088;SDS011;28709;52.030;5.652;2022-08-19T04:08:50;7.07;;;5.28;;
43088;SDS011;28709;52.030;5.652;2022-08-19T04:11:19;6.25;;;3.83;;
43088;SDS011;28709;52.030;5.652;2022-08-19T04:13:47;7.47;;;4.18;;
43088;SDS011;28709;52.030;5.652;2022-08-19T04:16:16;5.07;;;4.40;;
43088;SDS011;28709;52.030;5.652;2022-08-19T04:18:42;6.90;;;4.25;;
43088;SDS011;28709;52.030;5.652;2022-08-19T04:21:08;5.82;;;3.72;;
43088;SDS011;28709;52.030;5.652;2022-08-19T04:23:41;4.80;;;4.18;;
43088;SDS011;28709;52.030;5.652;2022-08-19T04:26:07;5.95;;;4.70;;
43088;SDS011;28709;52.030;5.652;2022-08-19T04:28:39;6.10;;;5.00;;
43088;SDS011;28709;52.030;5.652;2022-08-19T04:31:04;8.57;;;5.50;;
43088;SDS011;28709;52.030;5.652;2022-08-19T04:33:30;6.45;;;5.20;;
43088;SDS011;28709;52.030;5.652;2022-08-19T04:35:56;7.57;;;4.78;;
43088;SDS011;28709;52.030;5.652;2022-08-19T04:38:23;7.78;;;5.00;;
43088;SDS011;28709;52.030;5.652;2022-08-19T04:40:49;7.07;;;4.20;;
43088;SDS011;28709;52.030;5.652;2022-08-19T04:43:36;5.32;;;3.95;;
43088;SDS011;28709;52.030;5.652;2022-08-19T04:46:07;6.75;;;5.10;;
43088;SDS011;28709;52.030;5.652;2022-08-19T04:48:35;6.07;;;5.18;;
43088;SDS011;28709;52.030;5.652;2022-08-19T04:51:04;7.22;;;5.28;;
43088;SDS011;28709;52.030;5.652;2022-08-19T04:53:33;7.50;;;5.00;;
43088;SDS011;28709;52.030;5.652;2022-08-19T04:56:03;6.80;;;5.25;;
43088;SDS011;28709;52.030;5.652;2022-08-19T04:58:33;6.47;;;5.43;;
43088;SDS011;28709;52.030;5.652;2022-08-19T05:00:59;6.60;;;5.32;;
43088;SDS011;28709;52.030;5.652;2022-08-19T05:03:24;6.80;;;4.88;;
43088;SDS011;28709;52.030;5.652;2022-08-19T05:05:50;5.18;;;4.18;;
43088;SDS011;28709;52.030;5.652;2022-08-19T05:08:17;6.03;;;4.65;;
43088;SDS011;28709;52.030;5.652;2022-08-19T05:10:47;5.13;;;4.40;;
43088;SDS011;28709;52.030;5.652;2022-08-19T05:13:15;5.15;;;4.40;;
43088;SDS011;28709;52.030;5.652;2022-08-19T05:15:42;6.63;;;4.95;;
43088;SDS011;28709;52.030;5.652;2022-08-19T05:18:08;8.70;;;5.47;;
43088;SDS011;28709;52.030;5.652;2022-08-19T05:20:53;9.90;;;7.30;;
43088;SDS011;28709;52.030;5.652;2022-08-19T05:23:37;9.93;;;7.68;;
43088;SDS011;28709;52.030;5.652;2022-08-19T05:26:03;9.00;;;7.28;;
43088;SDS011;28709;52.030;5.652;2022-08-19T05:28:29;9.38;;;7.15;;
43088;SDS011;28709;52.030;5.652;2022-08-19T05:30:55;8.88;;;6.68;;
43088;SDS011;28709;52.030;5.652;2022-08-19T05:33:21;9.98;;;7.28;;
43088;SDS011;28709;52.030;5.652;2022-08-19T05:35:47;9.93;;;7.18;;
43088;SDS011;28709;52.030;5.652;2022-08-19T05:38:14;8.18;;;6.45;;
43088;SDS011;28709;52.030;5.652;2022-08-19T05:40:43;10.00;;;6.65;;
43088;SDS011;28709;52.030;5.652;2022-08-19T05:43:13;8.82;;;5.95;;
43088;SDS011;28709;52.030;5.652;2022-08-19T05:45:41;6.90;;;5.43;;
43088;SDS011;28709;52.030;5.652;2022-08-19T05:48:08;7.18;;;5.35;;
43088;SDS011;28709;52.030;5.652;2022-08-19T05:50:38;8.13;;;5.82;;
43088;SDS011;28709;52.030;5.652;2022-08-19T05:53:04;7.93;;;5.90;;
43088;SDS011;28709;52.030;5.652;2022-08-19T05:55:31;7.60;;;6.32;;
43088;SDS011;28709;52.030;5.652;2022-08-19T05:57:56;8.63;;;7.13;;
43088;SDS011;28709;52.030;5.652;2022-08-19T06:00:22;11.27;;;6.85;;
43088;SDS011;28709;52.030;5.652;2022-08-19T06:02:48;11.88;;;8.95;;
43088;SDS011;28709;52.030;5.652;2022-08-19T06:05:16;12.63;;;9.32;;
43088;SDS011;28709;52.030;5.652;2022-08-19T06:07:41;12.80;;;9.40;;
43088;SDS011;28709;52.030;5.652;2022-08-19T06:10:08;18.38;;;11.55;;
43088;SDS011;28709;52.030;5.652;2022-08-19T06:12:35;16.92;;;11.00;;
43088;SDS011;28709;52.030;5.652;2022-08-19T06:15:03;17.00;;;11.15;;
43088;SDS011;28709;52.030;5.652;2022-08-19T06:17:35;13.05;;;8.95;;
43088;SDS011;28709;52.030;5.652;2022-08-19T06:20:02;15.23;;;10.30;;
43088;SDS011;28709;52.030;5.652;2022-08-19T06:22:29;17.80;;;9.77;;
43088;SDS011;28709;52.030;5.652;2022-08-19T06:24:55;13.73;;;9.48;;
43088;SDS011;28709;52.030;5.652;2022-08-19T06:27:21;15.07;;;10.55;;
43088;SDS011;28709;52.030;5.652;2022-08-19T06:29:47;18.60;;;12.18;;
43088;SDS011;28709;52.030;5.652;2022-08-19T06:32:14;19.65;;;12.45;;
43088;SDS011;28709;52.030;5.652;2022-08-19T06:34:41;19.90;;;12.65;;
43088;SDS011;28709;52.030;5.652;2022-08-19T06:37:07;22.10;;;13.45;;
43088;SDS011;28709;52.030;5.652;2022-08-19T06:39:35;24.98;;;14.35;;
43088;SDS011;28709;52.030;5.652;2022-08-19T06:42:03;22.65;;;15.30;;
43088;SDS011;28709;52.030;5.652;2022-08-19T06:44:33;24.02;;;14.40;;
43088;SDS011;28709;52.030;5.652;2022-08-19T06:47:02;36.22;;;20.52;;
43088;SDS011;28709;52.030;5.652;2022-08-19T06:49:29;42.58;;;20.88;;
43088;SDS011;28709;52.030;5.652;2022-08-19T06:51:56;36.40;;;19.50;;
43088;SDS011;28709;52.030;5.652;2022-08-19T06:54:23;40.47;;;22.20;;
43088;SDS011;28709;52.030;5.652;2022-08-19T06:56:50;48.78;;;25.02;;
43088;SDS011;28709;52.030;5.652;2022-08-19T06:59:17;36.45;;;20.98;;
43088;SDS011;28709;52.030;5.652;2022-08-19T07:01:55;36.83;;;20.33;;
43088;SDS011;28709;52.030;5.652;2022-08-19T07:04:22;32.90;;;18.83;;
43088;SDS011;28709;52.030;5.652;2022-08-19T07:06:50;43.03;;;22.90;;
43088;SDS011;28709;52.030;5.652;2022-08-19T07:09:21;40.63;;;22.70;;
43088;SDS011;28709;52.030;5.652;2022-08-19T07:11:48;49.30;;;24.80;;
43088;SDS011;28709;52.030;5.652;2022-08-19T07:14:16;43.03;;;24.83;;
43088;SDS011;28709;52.030;5.652;2022-08-19T07:16:44;46.78;;;23.58;;
43088;SDS011;28709;52.030;5.652;2022-08-19T07:19:12;44.65;;;22.73;;
43088;SDS011;28709;52.030;5.652;2022-08-19T07:21:39;47.67;;;26.17;;
43088;SDS011;28709;52.030;5.652;2022-08-19T07:24:06;45.90;;;26.02;;
43088;SDS011;28709;52.030;5.652;2022-08-19T07:26:33;45.63;;;24.17;;
43088;SDS011;28709;52.030;5.652;2022-08-19T07:29:05;47.17;;;26.42;;
43088;SDS011;28709;52.030;5.652;2022-08-19T07:31:31;50.20;;;28.73;;
43088;SDS011;28709;52.030;5.652;2022-08-19T07:34:01;47.95;;;26.77;;
43088;SDS011;28709;52.030;5.652;2022-08-19T07:36:31;49.03;;;26.20;;
43088;SDS011;28709;52.030;5.652;2022-08-19T07:38:59;51.90;;;28.77;;
43088;SDS011;28709;52.030;5.652;2022-08-19T07:41:28;53.95;;;29.17;;
43088;SDS011;28709;52.030;5.652;2022-08-19T07:43:55;48.83;;;28.92;;
43088;SDS011;28709;52.030;5.652;2022-08-19T07:46:21;55.30;;;28.73;;
43088;SDS011;28709;52.030;5.652;2022-08-19T07:48:47;53.50;;;30.30;;
43088;SDS011;28709;52.030;5.652;2022-08-19T07:51:16;44.75;;;25.63;;
43088;SDS011;28709;52.030;5.652;2022-08-19T07:53:43;49.17;;;27.33;;
43088;SDS011;28709;52.030;5.652;2022-08-19T07:56:10;44.90;;;24.00;;
43088;SDS011;28709;52.030;5.652;2022-08-19T07:58:42;42.65;;;24.27;;
43088;SDS011;28709;52.030;5.652;2022-08-19T08:01:13;39.88;;;23.48;;
43088;SDS011;28709;52.030;5.652;2022-08-19T08:03:41;42.65;;;25.30;;
43088;SDS011;28709;52.030;5.652;2022-08-19T08:06:25;48.75;;;26.80;;
43088;SDS011;28709;52.030;5.652;2022-08-19T08:09:11;36.17;;;22.15;;
43088;SDS011;28709;52.030;5.652;2022-08-19T08:11:48;46.85;;;26.83;;
43088;SDS011;28709;52.030;5.652;2022-08-19T08:14:18;37.63;;;23.48;;
43088;SDS011;28709;52.030;5.652;2022-08-19T08:16:47;42.20;;;25.65;;
43088;SDS011;28709;52.030;5.652;2022-08-19T08:19:15;38.40;;;23.40;;
43088;SDS011;28709;52.030;5.652;2022-08-19T08:21:46;31.48;;;19.17;;
43088;SDS011;28709;52.030;5.652;2022-08-19T08:24:12;29.98;;;18.38;;
43088;SDS011;28709;52.030;5.652;2022-08-19T08:26:39;32.65;;;21.70;;
43088;SDS011;28709;52.030;5.652;2022-08-19T08:29:05;33.38;;;20.70;;
43088;SDS011;28709;52.030;5.652;2022-08-19T08:31:35;30.98;;;19.20;;
43088;SDS011;28709;52.030;5.652;2022-08-19T08:34:01;37.13;;;22.40;;
43088;SDS011;28709;52.030;5.652;2022-08-19T08:36:27;34.42;;;21.63;;
43088;SDS011;28709;52.030;5.652;2022-08-19T08:38:53;24.40;;;16.55;;
43088;SDS011;28709;52.030;5.652;2022-08-19T08:41:35;31.38;;;19.85;;
43088;SDS011;28709;52.030;5.652;2022-08-19T08:47:04;31.90;;;21.02;;
43088;SDS011;28709;52.030;5.652;2022-08-19T08:55:15;39.85;;;20.60;;
43088;SDS011;28709;52.030;5.652;2022-08-19T09:00:17;42.72;;;19.13;;
43088;SDS011;28709;52.030;5.652;2022-08-19T09:02:49;33.58;;;17.98;;
43088;SDS011;28709;52.030;5.652;2022-08-19T09:05:15;37.08;;;17.02;;
43088;SDS011;28709;52.030;5.652;2022-08-19T09:10:51;21.03;;;13.20;;
43088;SDS011;28709;52.030;5.652;2022-08-19T09:13:38;28.20;;;16.48;;
43088;SDS011;28709;52.030;5.652;2022-08-19T09:16:25;24.23;;;15.88;;
43088;SDS011;28709;52.030;5.652;2022-08-19T09:18:54;20.30;;;13.13;;
43088;SDS011;28709;52.030;5.652;2022-08-19T09:21:31;60.78;;;16.45;;
43088;SDS011;28709;52.030;5.652;2022-08-19T09:23:57;72.75;;;18.15;;
43088;SDS011;28709;52.030;5.652;2022-08-19T09:26:24;38.33;;;12.00;;
43088;SDS011;28709;52.030;5.652;2022-08-19T09:28:50;23.42;;;13.98;;
43088;SDS011;28709;52.030;5.652;2022-08-19T09:31:21;19.15;;;11.70;;
43088;SDS011;28709;52.030;5.652;2022-08-19T09:33:48;17.58;;;10.40;;
43088;SDS011;28709;52.030;5.652;2022-08-19T09:36:16;16.33;;;11.68;;
43088;SDS011;28709;52.030;5.652;2022-08-19T09:38:43;18.25;;;11.20;;
43088;SDS011;28709;52.030;5.652;2022-08-19T09:41:13;17.40;;;11.27;;
43088;SDS011;28709;52.030;5.652;2022-08-19T09:43:41;14.88;;;10.05;;
43088;SDS011;28709;52.030;5.652;2022-08-19T09:46:10;12.05;;;8.60;;
43088;SDS011;28709;52.030;5.652;2022-08-19T09:48:37;20.25;;;12.77;;
43088;SDS011;28709;52.030;5.652;2022-08-19T09:51:13;18.92;;;11.18;;
43088;SDS011;28709;52.030;5.652;2022-08-19T09:53:41;13.55;;;10.07;;
43088;SDS011;28709;52.030;5.652;2022-08-19T09:56:08;29.30;;;11.82;;
43088;SDS011;28709;52.030;5.652;2022-08-19T09:58:34;25.33;;;10.27;;
43088;SDS011;28709;52.030;5.652;2022-08-19T10:01:01;17.50;;;10.07;;
43088;SDS011;28709;52.030;5.652;2022-08-19T10:03:28;16.05;;;9.18;;
43088;SDS011;28709;52.030;5.652;2022-08-19T10:05:56;19.15;;;11.43;;
43088;SDS011;28709;52.030;5.652;2022-08-19T10:08:28;14.25;;;8.73;;
43088;SDS011;28709;52.030;5.652;2022-08-19T10:10:56;14.30;;;8.13;;
43088;SDS011;28709;52.030;5.652;2022-08-19T10:13:23;15.65;;;9.13;;
43088;SDS011;28709;52.030;5.652;2022-08-19T10:15:55;16.88;;;9.90;;
43088;SDS011;28709;52.030;5.652;2022-08-19T10:18:26;15.43;;;10.00;;
43088;SDS011;28709;52.030;5.652;2022-08-19T10:20:52;14.88;;;9.88;;
43088;SDS011;28709;52.030;5.652;2022-08-19T10:23:27;16.63;;;9.70;;
43088;SDS011;28709;52.030;5.652;2022-08-19T10:25:58;11.88;;;7.88;;
43088;SDS011;28709;52.030;5.652;2022-08-19T10:28:24;12.73;;;8.32;;
43088;SDS011;28709;52.030;5.652;2022-08-19T10:30:50;14.40;;;8.88;;
43088;SDS011;28709;52.030;5.652;2022-08-19T10:33:16;13.57;;;8.80;;
43088;SDS011;28709;52.030;5.652;2022-08-19T10:35:42;13.45;;;8.65;;
43088;SDS011;28709;52.030;5.652;2022-08-19T10:38:07;8.82;;;6.78;;
43088;SDS011;28709;52.030;5.652;2022-08-19T10:40:33;9.93;;;7.00;;
43088;SDS011;28709;52.030;5.652;2022-08-19T10:42:59;9.35;;;6.90;;
43088;SDS011;28709;52.030;5.652;2022-08-19T10:45:25;12.70;;;8.43;;
43088;SDS011;28709;52.030;5.652;2022-08-19T10:47:54;10.05;;;6.75;;
43088;SDS011;28709;52.030;5.652;2022-08-19T10:50:20;9.40;;;7.07;;
43088;SDS011;28709;52.030;5.652;2022-08-19T10:53:05;10.65;;;7.40;;
43088;SDS011;28709;52.030;5.652;2022-08-19T10:55:35;11.27;;;6.75;;
43088;SDS011;28709;52.030;5.652;2022-08-19T10:58:20;10.35;;;8.10;;
43088;SDS011;28709;52.030;5.652;2022-08-19T11:00:55;12.45;;;9.18;;
43088;SDS011;28709;52.030;5.652;2022-08-19T11:03:23;14.10;;;8.35;;
43088;SDS011;28709;52.030;5.652;2022-08-19T11:05:59;10.05;;;6.88;;
43088;SDS011;28709;52.030;5.652;2022-08-19T11:08:29;12.50;;;9.40;;
43088;SDS011;28709;52.030;5.652;2022-08-19T11:10:58;18.67;;;10.10;;
43088;SDS011;28709;52.030;5.652;2022-08-19T11:13:36;15.50;;;9.00;;
43088;SDS011;28709;52.030;5.652;2022-08-19T11:16:05;11.05;;;8.38;;
43088;SDS011;28709;52.030;5.652;2022-08-19T11:18:34;13.80;;;8.70;;
43088;SDS011;28709;52.030;5.652;2022-08-19T11:21:35;9.15;;;5.97;;
43088;SDS011;28709;52.030;5.652;2022-08-19T11:23:58;12.55;;;7.93;;
43088;SDS011;28709;52.030;5.652;2022-08-19T11:26:26;15.63;;;9.32;;
43088;SDS011;28709;52.030;5.652;2022-08-19T11:28:53;11.60;;;7.35;;
43088;SDS011;28709;52.030;5.652;2022-08-19T11:31:23;13.98;;;8.30;;
43088;SDS011;28709;52.030;5.652;2022-08-19T11:33:51;13.05;;;8.20;;
43088;SDS011;28709;52.030;5.652;2022-08-19T11:36:18;14.63;;;9.55;;
43088;SDS011;28709;52.030;5.652;2022-08-19T11:38:45;9.32;;;7.50;;
43088;SDS011;28709;52.030;5.652;2022-08-19T11:41:13;14.30;;;9.32;;
43088;SDS011;28709;52.030;5.652;2022-08-19T11:43:40;11.27;;;8.20;;
43088;SDS011;28709;52.030;5.652;2022-08-19T11:46:08;10.73;;;7.30;;
43088;SDS011;28709;52.030;5.652;2022-08-19T11:48:36;10.88;;;7.60;;
43088;SDS011;28709;52.030;5.652;2022-08-19T11:51:04;11.32;;;8.27;;
43088;SDS011;28709;52.030;5.652;2022-08-19T11:53:32;14.30;;;9.90;;
43088;SDS011;28709;52.030;5.652;2022-08-19T11:55:59;14.63;;;10.73;;
43088;SDS011;28709;52.030;5.652;2022-08-19T11:58:24;15.57;;;9.63;;
43088;SDS011;28709;52.030;5.652;2022-08-19T12:00:50;17.08;;;10.68;;
43088;SDS011;28709;52.030;5.652;2022-08-19T12:03:17;15.75;;;10.85;;
43088;SDS011;28709;52.030;5.652;2022-08-19T12:05:44;17.67;;;12.50;;
43088;SDS011;28709;52.030;5.652;2022-08-19T12:08:11;21.08;;;12.75;;
43088;SDS011;28709;52.030;5.652;2022-08-19T12:10:40;11.82;;;9.52;;
43088;SDS011;28709;52.030;5.652;2022-08-19T12:13:07;14.98;;;9.98;;
43088;SDS011;28709;52.030;5.652;2022-08-19T12:15:37;14.88;;;10.25;;
43088;SDS011;28709;52.030;5.652;2022-08-19T12:18:05;14.13;;;10.30;;
43088;SDS011;28709;52.030;5.652;2022-08-19T12:20:33;17.10;;;11.23;;
43088;SDS011;28709;52.030;5.652;2022-08-19T12:23:00;16.88;;;12.05;;
43088;SDS011;28709;52.030;5.652;2022-08-19T12:25:26;14.30;;;10.32;;
43088;SDS011;28709;52.030;5.652;2022-08-19T12:27:52;14.55;;;10.40;;
43088;SDS011;28709;52.030;5.652;2022-08-19T12:30:18;16.15;;;10.85;;
43088;SDS011;28709;52.030;5.652;2022-08-19T12:32:43;12.10;;;8.88;;
43088;SDS011;28709;52.030;5.652;2022-08-19T12:35:09;21.50;;;13.88;;
43088;SDS011;28709;52.030;5.652;2022-08-19T12:37:35;14.23;;;10.50;;
43088;SDS011;28709;52.030;5.652;2022-08-19T12:40:01;14.88;;;11.80;;
43088;SDS011;28709;52.030;5.652;2022-08-19T12:42:28;18.08;;;11.27;;
43088;SDS011;28709;52.030;5.652;2022-08-19T12:44:54;14.73;;;9.40;;
43088;SDS011;28709;52.030;5.652;2022-08-19T12:47:20;15.90;;;10.65;;
43088;SDS011;28709;52.030;5.652;2022-08-19T12:49:46;14.75;;;9.75;;
43088;SDS011;28709;52.030;5.652;2022-08-19T12:52:12;15.30;;;9.98;;
43088;SDS011;28709;52.030;5.652;2022-08-19T12:54:41;11.13;;;8.30;;
43088;SDS011;28709;52.030;5.652;2022-08-19T12:57:08;11.15;;;7.80;;
43088;SDS011;28709;52.030;5.652;2022-08-19T12:59:35;13.15;;;10.13;;
43088;SDS011;28709;52.030;5.652;2022-08-19T13:02:05;13.32;;;10.90;;
43088;SDS011;28709;52.030;5.652;2022-08-19T13:04:33;11.60;;;9.30;;
43088;SDS011;28709;52.030;5.652;2022-08-19T13:07:05;11.15;;;8.18;;
43088;SDS011;28709;52.030;5.652;2022-08-19T13:09:32;15.80;;;9.68;;
43088;SDS011;28709;52.030;5.652;2022-08-19T13:11:58;17.55;;;12.85;;
43088;SDS011;28709;52.030;5.652;2022-08-19T13:14:27;16.35;;;12.35;;
43088;SDS011;28709;52.030;5.652;2022-08-19T13:16:55;14.93;;;10.23;;
43088;SDS011;28709;52.030;5.652;2022-08-19T13:19:22;13.20;;;9.90;;
43088;SDS011;28709;52.030;5.652;2022-08-19T13:21:51;15.70;;;11.80;;
43088;SDS011;28709;52.030;5.652;2022-08-19T13:24:18;13.07;;;8.80;;
43088;SDS011;28709;52.030;5.652;2022-08-19T13:26:44;11.93;;;8.73;;
43088;SDS011;28709;52.030;5.652;2022-08-19T13:29:10;11.02;;;8.23;;
43088;SDS011;28709;52.030;5.652;2022-08-19T13:31:54;12.32;;;8.85;;
43088;SDS011;28709;52.030;5.652;2022-08-19T13:34:38;15.00;;;8.98;;
43088;SDS011;28709;52.030;5.652;2022-08-19T13:37:04;17.10;;;11.05;;
43088;SDS011;28709;52.030;5.652;2022-08-19T13:39:33;11.65;;;8.43;;
43088;SDS011;28709;52.030;5.652;2022-08-19T13:42:00;19.25;;;11.55;;
43088;SDS011;28709;52.030;5.652;2022-08-19T13:44:26;17.98;;;12.20;;
43088;SDS011;28709;52.030;5.652;2022-08-19T13:46:54;18.05;;;10.90;;
43088;SDS011;28709;52.030;5.652;2022-08-19T13:49:27;14.30;;;10.30;;
43088;SDS011;28709;52.030;5.652;2022-08-19T13:51:55;16.13;;;11.40;;
43088;SDS011;28709;52.030;5.652;2022-08-19T13:54:21;14.57;;;9.35;;
43088;SDS011;28709;52.030;5.652;2022-08-19T13:56:47;19.85;;;13.02;;
43088;SDS011;28709;52.030;5.652;2022-08-19T13:59:12;17.65;;;11.65;;
43088;SDS011;28709;52.030;5.652;2022-08-19T14:01:39;15.23;;;9.95;;
43088;SDS011;28709;52.030;5.652;2022-08-19T14:04:04;19.30;;;12.27;;
43088;SDS011;28709;52.030;5.652;2022-08-19T14:06:31;14.20;;;9.98;;
43088;SDS011;28709;52.030;5.652;2022-08-19T14:08:57;13.88;;;8.68;;
43088;SDS011;28709;52.030;5.652;2022-08-19T14:11:22;16.92;;;11.88;;
43088;SDS011;28709;52.030;5.652;2022-08-19T14:13:49;13.23;;;8.70;;
43088;SDS011;28709;52.030;5.652;2022-08-19T14:16:15;13.55;;;10.00;;
43088;SDS011;28709;52.030;5.652;2022-08-19T14:18:41;11.60;;;8.68;;
43088;SDS011;28709;52.030;5.652;2022-08-19T14:21:08;14.35;;;8.98;;
43088;SDS011;28709;52.030;5.652;2022-08-19T14:23:41;9.33;;;7.13;;
43088;SDS011;28709;52.030;5.652;2022-08-19T14:26:08;13.95;;;9.90;;
43088;SDS011;28709;52.030;5.652;2022-08-19T14:28:36;10.63;;;8.30;;
43088;SDS011;28709;52.030;5.652;2022-08-19T14:31:04;11.10;;;7.50;;
43088;SDS011;28709;52.030;5.652;2022-08-19T14:33:30;13.25;;;8.43;;
43088;SDS011;28709;52.030;5.652;2022-08-19T14:35:56;10.77;;;6.97;;
43088;SDS011;28709;52.030;5.652;2022-08-19T14:38:22;5.30;;;3.83;;
43088;SDS011;28709;52.030;5.652;2022-08-19T14:40:48;3.30;;;2.50;;
43088;SDS011;28709;52.030;5.652;2022-08-19T14:43:14;2.47;;;2.00;;
43088;SDS011;28709;52.030;5.652;2022-08-19T14:45:39;5.35;;;2.53;;
43088;SDS011;28709;52.030;5.652;2022-08-19T14:48:05;6.22;;;3.03;;
43088;SDS011;28709;52.030;5.652;2022-08-19T14:50:32;4.72;;;2.38;;
43088;SDS011;28709;52.030;5.652;2022-08-19T14:53:03;4.20;;;2.30;;
43088;SDS011;28709;52.030;5.652;2022-08-19T14:55:32;3.05;;;2.25;;
43088;SDS011;28709;52.030;5.652;2022-08-19T14:57:58;4.25;;;3.05;;